Time;durP1;ratioP1;P1;durP2;ratioP2;P2;SDS_P1;SDS_P2;PMS_P1;PMS_P2;Temp;Humidity;BMP_temperature;BMP_pressure;BME280_temperature;BME280_humidity;BME280_pressure;Samples;Min_cycle;Max_cycle;Signal;HPM_P1;HPM_P2
2022/07/22 00:01:38;;;;;;;10.13;3.30;;;;;;;24.76;34.80;94017.13;5123508;28;20031;-76
2022/07/22 00:04:03;;;;;;;9.68;3.50;;;;;;;24.76;35.62;94014.41;5123840;28;20130;-76
2022/07/22 00:06:29;;;;;;;9.27;3.08;;;;;;;24.75;35.21;94021.00;5123739;28;20027;-76
2022/07/22 00:08:55;;;;;;;7.57;2.42;;;;;;;24.70;36.27;94008.59;5123559;28;20031;-76
2022/07/22 00:11:21;;;;;;;6.70;3.20;;;;;;;24.63;36.64;94025.78;5123464;28;20302;-76
2022/07/22 00:13:46;;;;;;;9.23;2.92;;;;;;;24.62;37.23;94017.97;5123735;28;20034;-76
2022/07/22 00:16:12;;;;;;;9.43;3.30;;;;;;;24.51;37.23;94018.06;5123300;28;20047;-76
2022/07/22 00:18:37;;;;;;;7.32;3.22;;;;;;;24.45;37.91;94025.06;5123428;28;20082;-76
2022/07/22 00:21:03;;;;;;;8.65;3.60;;;;;;;24.37;38.93;94020.84;5123451;28;20035;-76
2022/07/22 00:23:29;;;;;;;5.85;3.00;;;;;;;24.32;38.89;94029.41;5123231;28;20090;-76
2022/07/22 00:25:54;;;;;;;7.78;3.95;;;;;;;24.22;39.84;94023.63;5123260;28;20035;-76
2022/07/22 00:28:20;;;;;;;7.45;3.13;;;;;;;24.12;40.46;94026.38;5123436;28;20047;-76
2022/07/22 00:30:45;;;;;;;18.27;4.22;;;;;;;24.00;40.55;94035.78;5123482;28;20366;-76
2022/07/22 00:33:11;;;;;;;9.35;4.15;;;;;;;23.87;40.78;94023.75;5123170;28;20323;-76
2022/07/22 00:35:36;;;;;;;14.80;4.97;;;;;;;23.75;41.04;94033.09;5123144;28;20031;-76
2022/07/22 00:38:02;;;;;;;12.75;4.53;;;;;;;23.68;41.24;94042.06;5123310;28;20056;-76
2022/07/22 00:40:28;;;;;;;10.75;3.75;;;;;;;23.59;41.80;94038.94;5123085;28;20035;-76
2022/07/22 00:42:54;;;;;;;7.75;4.10;;;;;;;23.47;42.27;94029.28;5123092;28;20026;-76
2022/07/22 00:45:19;;;;;;;10.82;3.83;;;;;;;23.38;42.97;94047.94;5123103;28;20020;-76
2022/07/22 00:47:45;;;;;;;12.43;4.10;;;;;;;23.23;43.12;94034.34;5123380;28;20377;-76
2022/07/22 00:50:11;;;;;;;12.75;5.57;;;;;;;23.10;43.82;94033.19;5122996;28;20022;-76
2022/07/22 00:52:37;;;;;;;15.80;3.78;;;;;;;23.01;43.94;94036.28;5123010;28;20016;-76
2022/07/22 00:55:05;;;;;;;12.13;4.80;;;;;;;22.91;44.30;94031.59;5123173;28;20034;-76
2022/07/22 00:57:30;;;;;;;9.50;3.58;;;;;;;22.78;44.34;94031.19;5123001;28;20020;-76
2022/07/22 00:59:56;;;;;;;11.77;4.05;;;;;;;22.70;45.07;94031.56;5126044;28;20022;-75
2022/07/22 01:02:21;;;;;;;14.13;3.97;;;;;;;22.62;44.87;94026.13;5127115;28;20023;-75
2022/07/22 01:04:47;;;;;;;9.75;4.10;;;;;;;22.56;45.08;94026.91;5127268;28;20310;-75
2022/07/22 01:07:12;;;;;;;9.05;3.95;;;;;;;22.44;45.76;94028.03;5126978;27;20016;-75
2022/07/22 01:09:43;;;;;;;8.45;3.67;;;;;;;22.38;46.13;94021.41;5127097;28;20310;-75
2022/07/22 01:12:08;;;;;;;10.32;4.03;;;;;;;22.27;46.58;94015.16;5126982;27;20016;-75
2022/07/22 01:14:33;;;;;;;8.02;3.80;;;;;;;22.18;47.06;94024.41;5126814;28;20027;-75
2022/07/22 01:16:59;;;;;;;8.35;4.05;;;;;;;22.11;47.56;94029.84;5126720;28;20081;-75
2022/07/22 01:19:24;;;;;;;7.50;4.30;;;;;;;22.00;47.87;94029.00;5126979;28;20019;-75
2022/07/22 01:21:50;;;;;;;12.20;4.50;;;;;;;21.93;48.29;94034.41;5126708;28;20107;-75
2022/07/22 01:24:15;;;;;;;12.63;4.90;;;;;;;21.84;48.43;94035.53;5126827;28;20371;-75
2022/07/22 01:26:41;;;;;;;9.75;4.80;;;;;;;21.78;48.51;94037.06;5126684;28;20026;-76
2022/07/22 01:29:07;;;;;;;12.35;4.90;;;;;;;21.70;48.58;94035.47;5126734;28;20086;-75
2022/07/22 01:31:33;;;;;;;17.45;5.22;;;;;;;21.63;48.78;94038.13;5126421;28;20019;-75
2022/07/22 01:33:58;;;;;;;13.98;4.40;;;;;;;21.59;48.78;94038.09;5126709;28;20027;-75
2022/07/22 01:36:24;;;;;;;9.90;4.57;;;;;;;21.51;48.87;94030.31;5126417;28;20049;-75
2022/07/22 01:38:50;;;;;;;12.43;4.40;;;;;;;21.44;49.22;94034.53;5126517;28;20020;-75
2022/07/22 01:41:15;;;;;;;9.93;4.22;;;;;;;21.43;49.25;94034.91;5126494;28;20092;-75
2022/07/22 01:43:41;;;;;;;6.20;4.20;;;;;;;21.39;49.17;94029.47;5126383;28;20033;-75
2022/07/22 01:46:06;;;;;;;9.18;4.20;;;;;;;21.34;49.33;94026.31;5126380;28;20019;-75
2022/07/22 01:48:32;;;;;;;15.75;5.65;;;;;;;21.28;49.21;94015.03;5126154;28;20103;-75
2022/07/22 01:50:58;;;;;;;10.15;4.65;;;;;;;21.21;49.62;94029.31;5126220;28;20087;-75
2022/07/22 01:53:23;;;;;;;13.30;4.80;;;;;;;21.21;49.53;94031.28;5126271;28;20069;-75
2022/07/22 01:55:49;;;;;;;14.63;4.47;;;;;;;21.18;49.73;94029.28;5126331;28;20247;-75
2022/07/22 01:58:15;;;;;;;9.43;4.30;;;;;;;21.15;49.97;94035.47;5125952;28;20019;-76
2022/07/22 02:00:40;;;;;;;10.13;4.15;;;;;;;21.11;50.00;94029.25;5125996;27;20111;-76
2022/07/22 02:03:06;;;;;;;10.85;4.85;;;;;;;21.08;49.57;94041.59;5126108;28;20263;-75
2022/07/22 02:05:32;;;;;;;12.38;4.47;;;;;;;21.03;49.41;94039.25;5126004;28;20069;-75
2022/07/22 02:08:04;;;;;;;10.88;4.03;;;;;;;21.01;50.20;94036.16;5125958;28;20027;-75
2022/07/22 02:10:30;;;;;;;7.35;3.65;;;;;;;20.99;50.08;94038.44;5125918;28;20020;-75
2022/07/22 02:12:57;;;;;;;12.25;4.25;;;;;;;20.97;48.85;94036.09;5125491;28;20030;-75
2022/07/22 02:15:23;;;;;;;13.65;4.43;;;;;;;20.97;48.43;94036.09;5125834;28;20028;-75
2022/07/22 02:17:49;;;;;;;9.27;4.05;;;;;;;20.94;48.61;94039.56;5125765;28;20107;-75
2022/07/22 02:20:14;;;;;;;14.32;3.97;;;;;;;20.95;48.41;94041.13;5125559;28;20305;-75
2022/07/22 02:22:40;;;;;;;10.20;4.28;;;;;;;20.92;48.45;94044.56;5125713;28;20031;-76
2022/07/22 02:25:05;;;;;;;14.65;4.18;;;;;;;20.95;48.27;94057.38;5125649;27;20034;-77
2022/07/22 02:27:31;;;;;;;7.50;3.90;;;;;;;20.95;47.99;94057.38;5125424;28;20027;-76
2022/07/22 02:29:56;;;;;;;10.93;5.00;;;;;;;20.93;49.65;94058.91;5125390;28;20214;-75
2022/07/22 02:32:22;;;;;;;14.93;4.40;;;;;;;20.93;49.59;94067.03;5125604;28;20024;-76
2022/07/22 02:34:47;;;;;;;15.93;3.92;;;;;;;20.91;49.25;94064.69;5125434;28;20031;-75
2022/07/22 02:37:13;;;;;;;13.75;4.15;;;;;;;20.92;48.32;94055.41;5125331;28;20030;-75
2022/07/22 02:39:38;;;;;;;10.25;4.47;;;;;;;20.92;48.02;94058.13;5125471;28;20031;-75
2022/07/22 02:42:04;;;;;;;8.38;4.13;;;;;;;20.84;48.09;94051.88;5125204;28;20072;-75
2022/07/22 02:44:29;;;;;;;8.35;4.18;;;;;;;20.84;48.02;94059.19;5125165;28;20076;-75
2022/07/22 02:46:55;;;;;;;8.40;4.78;;;;;;;20.81;48.13;94059.97;5125221;27;20019;-75
2022/07/22 02:49:20;;;;;;;13.05;4.20;;;;;;;20.77;48.53;94054.50;5125369;27;20336;-75
2022/07/22 02:51:46;;;;;;;10.95;4.40;;;;;;;20.76;48.78;94057.59;5125137;28;20362;-76
2022/07/22 02:54:11;;;;;;;9.68;4.03;;;;;;;20.72;48.97;94052.16;5124967;28;20299;-75
2022/07/22 02:56:36;;;;;;;10.23;4.15;;;;;;;20.73;49.78;94050.22;5124992;28;20019;-75
2022/07/22 02:59:02;;;;;;;14.10;4.28;;;;;;;20.71;49.97;94052.50;5125071;28;20031;-75
2022/07/22 03:01:28;;;;;;;8.77;4.53;;;;;;;20.70;50.33;94048.25;5124618;28;20065;-76
2022/07/22 03:03:53;;;;;;;5.35;3.20;;;;;;;20.62;50.46;94048.19;5124934;28;20027;-75
2022/07/22 03:06:20;;;;;;;11.23;4.13;;;;;;;20.60;50.62;94041.59;5124970;28;20019;-75
2022/07/22 03:08:46;;;;;;;11.13;4.25;;;;;;;20.56;50.68;94043.47;5124641;28;20020;-75
2022/07/22 03:11:11;;;;;;;7.82;4.05;;;;;;;20.50;51.01;94037.59;5124465;27;20011;-75
2022/07/22 03:13:37;;;;;;;10.85;4.05;;;;;;;20.53;50.42;94039.53;5124683;28;20072;-76
2022/07/22 03:16:03;;;;;;;6.65;4.18;;;;;;;20.55;50.67;94039.94;5124442;28;20039;-76
2022/07/22 03:18:28;;;;;;;8.30;4.07;;;;;;;20.53;50.76;94042.25;5124299;28;20208;-76
2022/07/22 03:20:54;;;;;;;11.75;4.63;;;;;;;20.54;50.69;94048.47;5124136;28;20367;-76
2022/07/22 03:23:19;;;;;;;11.07;4.15;;;;;;;20.54;50.21;94049.22;5124387;28;20068;-76
2022/07/22 03:25:45;;;;;;;8.05;4.15;;;;;;;20.51;50.61;94041.84;5124444;28;20336;-76
2022/07/22 03:28:10;;;;;;;11.27;4.55;;;;;;;20.52;50.85;94043.41;5123944;28;20095;-76
2022/07/22 03:30:36;;;;;;;6.97;3.45;;;;;;;20.49;51.10;94044.13;5124367;28;20026;-76
2022/07/22 03:33:01;;;;;;;9.68;4.07;;;;;;;20.48;51.34;94045.31;5124361;28;20251;-76
2022/07/22 03:35:27;;;;;;;6.70;3.47;;;;;;;20.46;50.54;94044.91;5123969;27;20314;-76
2022/07/22 03:37:52;;;;;;;9.80;4.32;;;;;;;20.49;49.93;94049.56;5124221;28;20011;-76
2022/07/22 03:40:18;;;;;;;10.30;3.47;;;;;;;20.49;50.80;94046.84;5123904;28;20094;-76
2022/07/22 03:42:44;;;;;;;8.70;4.45;;;;;;;20.55;51.38;94041.88;5123882;28;20169;-76
2022/07/22 03:45:09;;;;;;;18.38;4.93;;;;;;;20.55;51.01;94050.78;5123889;28;20043;-76
2022/07/22 03:47:36;;;;;;;11.52;4.78;;;;;;;20.54;50.79;94054.66;5124032;28;20024;-76
2022/07/22 03:50:01;;;;;;;8.70;4.20;;;;;;;20.55;51.94;94063.53;5123983;28;20320;-76
2022/07/22 03:52:30;;;;;;;16.75;6.45;;;;;;;20.59;52.08;94061.69;5123756;28;20087;-76
2022/07/22 03:54:56;;;;;;;17.02;5.07;;;;;;;20.64;51.59;94070.25;5123627;28;20355;-76
2022/07/22 03:57:21;;;;;;;17.48;4.63;;;;;;;20.66;52.49;94069.88;5123821;28;20031;-77
2022/07/22 03:59:47;;;;;;;12.02;4.22;;;;;;;20.65;52.98;94068.31;5123609;28;20072;-77
2022/07/22 04:02:13;;;;;;;14.52;4.82;;;;;;;20.67;53.02;94067.94;5123633;28;20027;-77
2022/07/22 04:04:39;;;;;;;12.15;5.28;;;;;;;20.66;51.99;94069.88;5123649;28;20019;-77
2022/07/22 04:07:04;;;;;;;15.93;4.53;;;;;;;20.68;51.66;94062.16;5123407;28;20023;-76
2022/07/22 04:09:30;;;;;;;12.18;5.35;;;;;;;20.68;51.60;94066.78;5123506;28;20078;-77
2022/07/22 04:11:55;;;;;;;9.68;5.10;;;;;;;20.66;51.38;94075.31;5123689;28;20047;-76
2022/07/22 04:14:21;;;;;;;12.18;5.60;;;;;;;20.67;52.31;94081.50;5123818;28;20024;-76
2022/07/22 04:16:47;;;;;;;13.25;4.88;;;;;;;20.67;52.50;94074.16;5123384;28;20070;-76
2022/07/22 04:19:13;;;;;;;12.57;4.93;;;;;;;20.70;51.72;94080.75;5123398;28;20030;-76
2022/07/22 04:21:39;;;;;;;10.90;4.63;;;;;;;20.71;52.17;94083.09;5123398;28;20034;-76
2022/07/22 04:24:05;;;;;;;19.20;5.55;;;;;;;20.73;52.68;94082.72;5123280;28;20217;-77
2022/07/22 04:26:31;;;;;;;28.02;6.18;;;;;;;20.75;53.38;94085.84;5123346;28;20099;-76
2022/07/22 04:28:56;;;;;;;12.13;5.45;;;;;;;20.71;53.59;94083.09;5123298;28;20043;-76
2022/07/22 04:31:22;;;;;;;19.55;5.60;;;;;;;20.69;53.88;94090.03;5123293;28;20056;-75
2022/07/22 04:33:47;;;;;;;23.50;5.65;;;;;;;20.68;53.88;94086.53;5121126;28;20016;-77
2022/07/22 04:36:13;;;;;;;14.80;5.63;;;;;;;20.71;54.27;94093.16;5123242;28;20030;-76
2022/07/22 04:38:38;;;;;;;13.48;6.07;;;;;;;20.73;53.75;94090.84;5123183;28;20043;-76
2022/07/22 04:41:04;;;;;;;22.85;6.53;;;;;;;20.73;53.51;94094.31;5122906;28;20015;-76
2022/07/22 04:43:30;;;;;;;26.92;5.60;;;;;;;20.70;53.80;94086.16;5123189;28;20030;-76
2022/07/22 04:45:56;;;;;;;25.85;6.00;;;;;;;20.70;53.99;94097.78;5123393;28;20039;-76
2022/07/22 04:48:21;;;;;;;27.35;7.20;;;;;;;20.69;54.09;94096.22;5123057;28;20035;-77
2022/07/22 04:50:47;;;;;;;22.38;6.22;;;;;;;20.72;55.25;94105.53;5123073;28;20344;-77
2022/07/22 04:53:12;;;;;;;15.85;5.85;;;;;;;20.67;54.23;94097.75;5123182;28;20064;-76
2022/07/22 04:55:38;;;;;;;20.33;6.88;;;;;;;20.74;52.37;94104.03;5123059;28;20309;-76
2022/07/22 04:58:03;;;;;;;17.23;7.05;;;;;;;20.76;53.35;94109.84;5122860;28;20149;-76
2022/07/22 05:00:29;;;;;;;14.48;5.75;;;;;;;20.78;52.48;94104.84;5122920;28;20091;-76
2022/07/22 05:02:55;;;;;;;19.05;5.80;;;;;;;20.83;51.00;94106.41;5123079;28;20096;-76
2022/07/22 05:05:21;;;;;;;17.95;6.10;;;;;;;20.88;51.36;94108.78;5122907;28;20022;-76
2022/07/22 05:07:46;;;;;;;11.38;5.43;;;;;;;20.95;51.33;94111.56;5123095;28;20057;-76
2022/07/22 05:10:12;;;;;;;15.25;5.57;;;;;;;21.02;50.45;94106.22;5121858;28;20087;-76
2022/07/22 05:12:37;;;;;;;11.40;5.03;;;;;;;21.08;50.84;94105.88;5122903;28;20069;-76
2022/07/22 05:15:04;;;;;;;9.98;5.75;;;;;;;21.13;50.07;94108.25;5122856;28;20057;-76
2022/07/22 05:17:29;;;;;;;16.27;5.53;;;;;;;21.18;48.83;94107.91;5122697;28;20110;-76
2022/07/22 05:19:55;;;;;;;12.02;5.85;;;;;;;21.08;49.88;94108.59;5123157;28;20023;-77
2022/07/22 05:22:20;;;;;;;24.15;6.57;;;;;;;21.16;49.64;94110.19;5122535;28;20039;-75
2022/07/22 05:24:46;;;;;;;20.52;6.13;;;;;;;21.20;49.97;94111.00;5122828;28;20023;-75
2022/07/22 05:27:11;;;;;;;13.68;6.35;;;;;;;21.09;50.42;94121.75;5122786;28;20043;-75
2022/07/22 05:29:37;;;;;;;17.85;6.65;;;;;;;21.18;50.43;94118.75;5122571;28;20313;-75
2022/07/22 05:32:03;;;;;;;21.98;7.15;;;;;;;21.19;50.03;94120.31;5122671;28;20023;-76
2022/07/22 05:34:28;;;;;;;15.95;5.75;;;;;;;21.24;49.50;94125.38;5122788;28;20111;-76
2022/07/22 05:36:54;;;;;;;19.73;6.93;;;;;;;21.30;49.74;94117.69;5122990;28;20019;-76
2022/07/22 05:39:19;;;;;;;14.98;6.80;;;;;;;21.31;51.00;94122.72;5122342;28;20061;-76
2022/07/22 05:41:45;;;;;;;19.40;6.35;;;;;;;21.35;50.95;94126.25;5122531;28;20027;-76
2022/07/22 05:44:10;;;;;;;17.42;7.93;;;;;;;21.50;51.62;94120.97;5122402;28;20374;-76
2022/07/22 05:46:36;;;;;;;36.30;7.38;;;;;;;21.59;50.29;94121.41;5126127;28;20023;-75
2022/07/22 05:49:01;;;;;;;19.30;6.80;;;;;;;21.70;49.58;94122.28;5126209;28;20042;-75
2022/07/22 05:51:27;;;;;;;25.98;6.50;;;;;;;21.80;50.65;94120.78;5126379;28;20016;-75
2022/07/22 05:53:52;;;;;;;23.05;6.63;;;;;;;21.95;49.45;94119.72;5126130;28;20310;-75
2022/07/22 05:56:18;;;;;;;39.03;7.53;;;;;;;22.08;49.29;94111.25;5126019;28;20043;-75
2022/07/22 05:58:43;;;;;;;15.75;6.15;;;;;;;22.15;49.21;94117.50;5126268;28;20266;-76
2022/07/22 06:01:12;;;;;;;19.13;6.10;;;;;;;22.20;48.70;94119.06;5125892;28;20064;-75
2022/07/22 06:03:38;;;;;;;37.80;6.85;;;;;;;22.28;48.74;94114.47;5125815;28;20034;-75
2022/07/22 06:06:05;;;;;;;26.25;5.78;;;;;;;22.34;48.29;94116.44;5125956;28;20090;-76
2022/07/22 06:08:31;;;;;;;17.35;5.95;;;;;;;22.42;48.55;94125.41;5125893;27;20019;-75
2022/07/22 06:10:59;;;;;;;24.35;7.05;;;;;;;22.54;48.32;94114.19;5126078;28;20027;-75
2022/07/22 06:13:24;;;;;;;21.35;7.65;;;;;;;22.68;47.90;94126.28;5125806;28;20019;-75
2022/07/22 06:15:50;;;;;;;24.67;6.45;;;;;;;22.77;47.09;94118.53;5125500;28;20015;-75
2022/07/22 06:18:16;;;;;;;17.40;6.75;;;;;;;22.85;47.35;94125.53;5125732;28;20027;-76
2022/07/22 06:20:41;;;;;;;19.92;6.40;;;;;;;22.93;47.00;94115.47;5125417;28;20290;-75
2022/07/22 06:23:06;;;;;;;29.52;7.57;;;;;;;23.07;47.32;94120.94;5125855;28;20061;-75
2022/07/22 06:25:32;;;;;;;20.85;5.70;;;;;;;23.13;46.79;94113.19;5125603;28;20206;-75
2022/07/22 06:27:57;;;;;;;22.25;6.40;;;;;;;23.22;47.29;94114.38;5125583;28;20031;-75
2022/07/22 06:30:23;;;;;;;30.88;7.32;;;;;;;23.29;46.95;94115.53;5125330;28;20023;-75
2022/07/22 06:32:48;;;;;;;35.45;6.00;;;;;;;23.40;46.64;94117.06;5125532;28;20225;-76
2022/07/22 06:35:14;;;;;;;17.35;5.75;;;;;;;23.55;45.65;94122.50;5125267;28;20016;-75
2022/07/22 06:37:39;;;;;;;28.52;5.78;;;;;;;23.68;45.43;94120.97;5125067;28;20018;-75
2022/07/22 06:40:05;;;;;;;26.77;5.68;;;;;;;23.84;45.59;94120.59;5125073;28;20092;-76
2022/07/22 06:42:31;;;;;;;15.43;5.47;;;;;;;23.95;45.72;94118.59;5125055;28;20234;-76
2022/07/22 06:44:56;;;;;;;23.38;5.70;;;;;;;24.11;44.11;94120.91;5125115;28;20032;-75
2022/07/22 06:47:22;;;;;;;19.33;5.93;;;;;;;24.26;43.36;94121.63;5125121;28;20020;-75
2022/07/22 06:49:47;;;;;;;21.25;5.43;;;;;;;24.41;42.22;94125.09;5124831;28;20015;-75
2022/07/22 06:52:12;;;;;;;22.95;5.10;;;;;;;24.48;42.50;94127.78;5124940;28;20011;-76
2022/07/22 06:54:38;;;;;;;20.63;5.72;;;;;;;24.57;42.67;94114.56;5124861;27;20018;-75
2022/07/22 06:57:03;;;;;;;27.10;5.40;;;;;;;24.72;42.33;94117.22;5124194;28;20057;-76
2022/07/22 06:59:29;;;;;;;31.75;5.28;;;;;;;24.88;41.91;94120.25;5123702;28;20337;-76
2022/07/22 07:01:54;;;;;;;27.65;5.70;;;;;;;24.98;42.41;94119.41;5124846;28;20340;-76
2022/07/22 07:04:20;;;;;;;14.55;5.25;;;;;;;25.17;42.24;94122.78;5124780;28;20019;-76
2022/07/22 07:06:45;;;;;;;18.63;4.72;;;;;;;25.36;41.02;94113.31;5124739;28;20069;-76
2022/07/22 07:09:11;;;;;;;8.02;3.97;;;;;;;25.50;39.72;94106.97;5124437;28;20122;-76
2022/07/22 07:11:36;;;;;;;15.35;4.45;;;;;;;25.64;39.29;94123.22;5124697;28;20020;-76
2022/07/22 07:14:02;;;;;;;16.00;5.03;;;;;;;25.74;38.62;94122.38;5124385;28;20057;-76
2022/07/22 07:16:27;;;;;;;23.40;6.53;;;;;;;25.95;37.83;94131.56;5124342;28;20088;-76
2022/07/22 07:18:53;;;;;;;20.58;5.22;;;;;;;26.01;38.09;94124.47;5124252;28;20060;-76
2022/07/22 07:21:18;;;;;;;8.90;4.22;;;;;;;26.15;38.07;94139.94;5124303;28;20019;-76
2022/07/22 07:23:44;;;;;;;13.93;3.88;;;;;;;26.19;35.02;94133.25;5124651;28;20015;-75
2022/07/22 07:26:10;;;;;;;7.40;3.67;;;;;;;26.20;35.15;94128.59;5124312;28;20023;-75
2022/07/22 07:28:35;;;;;;;9.20;3.88;;;;;;;26.25;36.08;94122.66;5124274;28;20016;-76
2022/07/22 07:31:01;;;;;;;12.30;4.38;;;;;;;26.29;37.24;94119.91;5124289;28;20061;-76
2022/07/22 07:33:27;;;;;;;12.38;4.15;;;;;;;26.34;37.71;94130.41;5124223;28;20317;-76
2022/07/22 07:35:53;;;;;;;19.05;4.70;;;;;;;26.50;37.12;94133.34;5124065;28;20088;-76
2022/07/22 07:38:18;;;;;;;14.60;3.88;;;;;;;26.63;37.03;94132.81;5124078;28;20039;-76
2022/07/22 07:40:44;;;;;;;16.50;4.57;;;;;;;26.62;36.05;94129.28;5123884;28;20019;-76
2022/07/22 07:43:10;;;;;;;11.82;3.53;;;;;;;26.67;36.14;94136.28;5122618;28;20026;-76
2022/07/22 07:45:36;;;;;;;13.88;4.47;;;;;;;26.79;35.70;94146.69;5124010;27;20340;-76
2022/07/22 07:48:02;;;;;;;17.05;4.25;;;;;;;26.83;35.29;94136.47;5124022;28;20083;-75
2022/07/22 07:50:28;;;;;;;8.18;3.53;;;;;;;26.92;35.75;94139.47;5124052;28;20073;-76
2022/07/22 07:52:54;;;;;;;24.02;4.22;;;;;;;27.04;35.41;94145.56;5123763;28;20305;-76
2022/07/22 07:55:20;;;;;;;18.10;3.78;;;;;;;27.00;35.09;94145.63;5123740;28;20019;-76
2022/07/22 07:57:48;;;;;;;7.10;3.38;;;;;;;27.02;33.86;94146.75;5123789;28;20023;-75
2022/07/22 08:00:15;;;;;;;10.88;3.10;;;;;;;27.00;33.96;94143.66;5123603;28;20035;-75
2022/07/22 08:02:40;;;;;;;8.57;3.40;;;;;;;26.98;34.58;94134.31;5123701;28;20084;-75
2022/07/22 08:05:06;;;;;;;13.05;3.88;;;;;;;27.07;34.50;94131.84;5123600;28;20026;-75
2022/07/22 08:07:32;;;;;;;6.15;3.35;;;;;;;27.17;31.82;94133.66;5123328;28;20019;-76
2022/07/22 08:09:57;;;;;;;9.05;3.80;;;;;;;27.27;33.74;94136.66;5123752;28;20047;-76
2022/07/22 08:12:23;;;;;;;8.68;3.22;;;;;;;27.32;33.82;94134.25;5123564;28;20028;-76
2022/07/22 08:14:48;;;;;;;9.25;3.65;;;;;;;27.39;32.92;94136.09;5123338;28;20027;-76
2022/07/22 08:17:14;;;;;;;7.63;3.17;;;;;;;27.49;33.40;94134.38;5123283;28;20286;-76
2022/07/22 08:19:39;;;;;;;11.57;3.00;;;;;;;27.61;33.24;94131.81;5123146;28;20019;-76
2022/07/22 08:22:05;;;;;;;10.13;3.25;;;;;;;27.74;31.83;94134.78;5123157;28;20050;-76
2022/07/22 08:24:30;;;;;;;8.43;3.08;;;;;;;27.87;31.85;94142.41;5123218;28;20082;-76
2022/07/22 08:26:56;;;;;;;13.32;3.38;;;;;;;27.89;30.41;94146.28;5123106;28;20019;-76
2022/07/22 08:29:21;;;;;;;10.85;2.97;;;;;;;27.89;30.68;94146.28;5122813;28;20174;-76
2022/07/22 08:31:47;;;;;;;12.10;3.15;;;;;;;27.96;30.17;94139.91;5122952;28;20213;-75
2022/07/22 08:34:12;;;;;;;6.22;3.45;;;;;;;28.00;30.55;94140.59;5123125;28;20031;-76
2022/07/22 08:36:39;;;;;;;12.23;3.15;;;;;;;28.06;30.69;94141.66;5123286;28;20050;-76
2022/07/22 08:39:05;;;;;;;7.57;2.92;;;;;;;28.14;30.32;94132.13;5123079;28;20020;-76
2022/07/22 08:41:35;;;;;;;7.70;2.80;;;;;;;28.29;30.48;94145.56;5123190;28;20218;-76
2022/07/22 08:44:03;;;;;;;9.63;2.80;;;;;;;28.36;30.64;94150.94;5123162;28;20022;-76
2022/07/22 08:46:28;;;;;;;8.93;2.72;;;;;;;28.38;30.11;94138.34;5123268;28;20190;-75
2022/07/22 08:48:54;;;;;;;10.38;3.45;;;;;;;28.50;30.06;94145.19;5122935;28;20049;-76
2022/07/22 08:51:20;;;;;;;11.27;3.67;;;;;;;28.52;30.12;94145.56;5122864;28;20008;-76
2022/07/22 08:53:45;;;;;;;17.48;2.92;;;;;;;28.62;29.43;94135.56;5123082;28;20023;-75
2022/07/22 08:56:12;;;;;;;7.85;3.15;;;;;;;28.66;28.99;94140.97;5122985;28;20015;-75
2022/07/22 08:58:38;;;;;;;7.30;2.90;;;;;;;28.79;29.49;94141.88;5123025;28;20019;-75
2022/07/22 09:01:15;;;;;;;10.15;3.30;;;;;;;28.91;28.51;94146.72;5122640;28;20306;-75
2022/07/22 09:03:58;;;;;;;10.68;2.97;;;;;;;28.99;28.22;94148.13;5122798;28;20019;-75
2022/07/22 09:06:26;;;;;;;7.45;2.97;;;;;;;28.92;28.31;94142.78;5122932;28;20076;-75
2022/07/22 09:08:53;;;;;;;9.77;3.47;;;;;;;28.92;28.40;94151.03;5122715;28;20167;-75
2022/07/22 09:11:20;;;;;;;9.05;3.17;;;;;;;28.98;28.94;94151.28;5122974;28;20031;-75
2022/07/22 09:13:47;;;;;;;8.57;3.42;;;;;;;29.05;28.91;94151.13;5122691;28;20023;-75
2022/07/22 09:16:13;;;;;;;16.30;3.75;;;;;;;29.16;28.91;94150.94;5122413;28;20043;-75
2022/07/22 09:18:49;;;;;;;6.95;3.03;;;;;;;29.28;26.97;94154.97;5122782;28;20084;-76
2022/07/22 09:21:14;;;;;;;5.82;2.60;;;;;;;29.37;25.96;94150.47;5126066;28;20039;-76
2022/07/22 09:23:41;;;;;;;7.57;2.72;;;;;;;29.39;26.23;94159.03;5126697;28;20325;-76
2022/07/22 09:26:07;;;;;;;14.73;3.15;;;;;;;29.48;27.73;94154.94;5126597;28;20321;-76
2022/07/22 09:28:32;;;;;;;12.05;3.35;;;;;;;29.53;26.92;94152.41;5126771;28;20039;-76
2022/07/22 09:30:58;;;;;;;8.70;3.58;;;;;;;29.57;27.37;94157.84;5126644;28;20018;-76
2022/07/22 09:33:23;;;;;;;13.15;4.05;;;;;;;29.67;25.38;94150.56;5126615;28;20035;-76
2022/07/22 09:35:49;;;;;;;7.82;3.10;;;;;;;29.57;25.77;94150.41;5126375;28;20027;-76
2022/07/22 09:38:17;;;;;;;6.03;3.60;;;;;;;29.69;26.15;94151.66;5126353;28;20020;-76
2022/07/22 09:40:44;;;;;;;12.02;3.28;;;;;;;29.80;27.37;94149.47;5126021;28;20027;-76
2022/07/22 09:43:16;;;;;;;8.63;3.80;;;;;;;29.94;28.16;94145.59;5126378;28;20020;-76
2022/07/22 09:45:48;;;;;;;6.03;2.90;;;;;;;30.03;27.68;94136.72;5126292;28;20438;-76
2022/07/22 09:48:14;;;;;;;8.55;3.38;;;;;;;30.10;28.15;94142.03;5126326;28;20020;-76
2022/07/22 09:50:39;;;;;;;7.45;3.60;;;;;;;30.18;27.24;94140.63;5126174;28;20057;-76
2022/07/22 09:53:05;;;;;;;13.73;3.25;;;;;;;30.19;26.65;94144.19;5126158;28;20318;-76
2022/07/22 09:55:33;;;;;;;9.20;3.13;;;;;;;30.18;26.99;94139.88;5125909;28;20143;-76
2022/07/22 09:57:59;;;;;;;9.40;3.63;;;;;;;30.10;27.56;94136.53;5126141;28;20016;-76
2022/07/22 10:00:26;;;;;;;9.68;3.22;;;;;;;30.18;26.27;94132.41;5126043;28;20083;-76
2022/07/22 10:02:55;;;;;;;20.45;4.28;;;;;;;30.22;25.46;94129.56;5125788;28;20034;-76
2022/07/22 10:05:30;;;;;;;11.95;3.25;;;;;;;30.25;25.33;94136.19;5125946;28;20031;-76
2022/07/22 10:07:56;;;;;;;13.68;3.80;;;;;;;30.16;26.62;94137.56;5125918;28;20108;-76
2022/07/22 10:10:24;;;;;;;11.25;3.10;;;;;;;30.25;26.22;94128.72;5125818;28;20023;-76
2022/07/22 10:12:51;;;;;;;6.28;3.83;;;;;;;30.30;25.20;94136.44;5125782;28;20020;-76
2022/07/22 10:15:17;;;;;;;11.27;3.47;;;;;;;30.33;25.61;94137.56;5125545;28;20367;-76
2022/07/22 10:18:07;;;;;;;11.10;3.95;;;;;;;30.33;25.64;94129.31;5125511;27;20055;-76
2022/07/22 10:20:33;;;;;;;6.80;3.33;;;;;;;30.30;25.37;94127.44;5125759;28;20031;-76
2022/07/22 10:23:03;;;;;;;10.80;3.50;;;;;;;30.34;25.24;94122.59;5125653;28;20031;-76
2022/07/22 10:25:31;;;;;;;7.47;3.08;;;;;;;30.33;25.34;94123.81;5125739;28;20273;-76
2022/07/22 10:28:03;;;;;;;5.60;3.35;;;;;;;30.29;25.50;94120.38;5125561;28;20318;-76
2022/07/22 10:30:30;;;;;;;;;;;;;;;30.22;25.20;94115.81;5125426;28;20084;-76
2022/07/22 10:33:03;;;;;;;11.18;3.47;;;;;;;30.22;26.79;94118.56;5124430;28;19904;-76
2022/07/22 10:35:30;;;;;;;6.45;3.40;;;;;;;30.39;27.61;94125.59;5125442;28;20023;-76
2022/07/22 10:37:58;;;;;;;9.13;2.97;;;;;;;30.58;27.23;94123.13;5125145;28;20024;-76
2022/07/22 10:40:57;;;;;;;13.90;3.35;;;;;;;30.73;26.02;94118.75;5125197;27;20099;-76
2022/07/22 10:43:31;;;;;;;6.80;3.53;;;;;;;30.80;26.17;94117.78;5125284;28;20051;-76
2022/07/22 10:45:59;;;;;;;7.28;3.30;;;;;;;30.99;26.49;94125.09;5125029;28;20015;-76
2022/07/22 10:48:30;;;;;;;10.77;3.60;;;;;;;31.13;25.58;94123.16;5125127;28;20318;-76
2022/07/22 10:51:05;;;;;;;8.57;3.50;;;;;;;31.28;25.47;94124.22;5125058;28;20267;-76
2022/07/22 10:53:53;;;;;;;11.55;3.47;;;;;;;31.29;25.31;94112.03;5125240;28;20583;-76
2022/07/22 10:56:26;;;;;;;5.90;2.97;;;;;;;31.38;24.86;94116.84;5125097;28;20312;-76
2022/07/22 10:58:56;;;;;;;9.85;3.80;;;;;;;31.40;24.98;94108.94;5125025;28;20057;-76
2022/07/22 11:01:28;;;;;;;6.05;3.17;;;;;;;31.40;25.87;94117.94;5124878;28;20070;-76
2022/07/22 11:03:55;;;;;;;10.48;3.47;;;;;;;31.51;25.25;94114.16;5124799;28;20036;-76
2022/07/22 11:06:25;;;;;;;8.25;3.67;;;;;;;31.66;24.43;94111.69;5124942;28;20194;-76
2022/07/22 11:08:53;;;;;;;9.30;3.17;;;;;;;31.64;23.86;94106.63;5124867;28;20070;-76
2022/07/22 11:11:31;;;;;;;7.15;3.35;;;;;;;31.69;24.17;94111.59;5124592;28;20026;-76
2022/07/22 11:13:57;;;;;;;8.40;3.70;;;;;;;31.76;24.42;94105.06;5124661;28;20024;-76
2022/07/22 11:16:25;;;;;;;5.50;3.22;;;;;;;31.85;24.39;94112.63;5124544;28;20032;-76
2022/07/22 11:19:02;;;;;;;10.77;3.22;;;;;;;31.92;23.78;94098.63;5124563;28;20082;-76
2022/07/22 11:21:30;;;;;;;11.30;3.38;;;;;;;32.06;24.48;94103.69;5124348;27;20035;-76
2022/07/22 11:23:58;;;;;;;7.28;3.20;;;;;;;32.23;24.43;94101.53;5124247;28;20035;-76
2022/07/22 11:26:33;;;;;;;5.82;2.95;;;;;;;32.42;24.41;94102.41;5124578;28;20029;-76